sensor_id;sensor_type;location;lat;lon;timestamp;temperature;humidity
55870;DHT22;41790;50.940;4.560;2023-03-01T00:02:06;2.40;63.20
55870;DHT22;41790;50.940;4.560;2023-03-01T00:04:32;2.40;63.40
55870;DHT22;41790;50.940;4.560;2023-03-01T00:07:02;2.30;63.70
55870;DHT22;41790;50.940;4.560;2023-03-01T00:09:27;2.10;64.00
55870;DHT22;41790;50.940;4.560;2023-03-01T00:11:53;2.10;64.10
55870;DHT22;41790;50.940;4.560;2023-03-01T00:14:19;2.10;64.00
55870;DHT22;41790;50.940;4.560;2023-03-01T00:16:46;2.10;63.50
55870;DHT22;41790;50.940;4.560;2023-03-01T00:19:14;2.10;63.50
55870;DHT22;41790;50.940;4.560;2023-03-01T00:21:41;2.10;63.20
55870;DHT22;41790;50.940;4.560;2023-03-01T00:24:07;2.10;63.10
55870;DHT22;41790;50.940;4.560;2023-03-01T00:26:33;2.20;63.00
55870;DHT22;41790;50.940;4.560;2023-03-01T00:29:00;2.20;63.00
55870;DHT22;41790;50.940;4.560;2023-03-01T00:31:30;2.20;62.90
55870;DHT22;41790;50.940;4.560;2023-03-01T00:33:58;2.10;63.20
55870;DHT22;41790;50.940;4.560;2023-03-01T00:36:27;2.10;63.60
55870;DHT22;41790;50.940;4.560;2023-03-01T00:38:54;2.00;64.20
55870;DHT22;41790;50.940;4.560;2023-03-01T00:41:23;2.00;64.50
55870;DHT22;41790;50.940;4.560;2023-03-01T00:43:52;1.90;64.70
55870;DHT22;41790;50.940;4.560;2023-03-01T00:46:19;1.80;65.00
55870;DHT22;41790;50.940;4.560;2023-03-01T00:48:46;1.90;64.80
55870;DHT22;41790;50.940;4.560;2023-03-01T00:51:18;1.70;65.10
55870;DHT22;41790;50.940;4.560;2023-03-01T00:53:44;1.60;65.70
55870;DHT22;41790;50.940;4.560;2023-03-01T00:56:14;1.70;65.50
55870;DHT22;41790;50.940;4.560;2023-03-01T00:58:45;1.70;65.60
55870;DHT22;41790;50.940;4.560;2023-03-01T01:01:18;1.90;64.00
55870;DHT22;41790;50.940;4.560;2023-03-01T01:03:59;2.00;64.10
55870;DHT22;41790;50.940;4.560;2023-03-01T01:06:31;2.00;63.70
55870;DHT22;41790;50.940;4.560;2023-03-01T01:08:58;1.90;64.50
55870;DHT22;41790;50.940;4.560;2023-03-01T01:11:25;1.80;64.80
55870;DHT22;41790;50.940;4.560;2023-03-01T01:13:51;1.80;64.70
55870;DHT22;41790;50.940;4.560;2023-03-01T01:16:21;1.70;65.40
55870;DHT22;41790;50.940;4.560;2023-03-01T01:18:47;1.70;65.10
55870;DHT22;41790;50.940;4.560;2023-03-01T01:21:16;1.70;65.20
55870;DHT22;41790;50.940;4.560;2023-03-01T01:23:43;1.60;65.80
55870;DHT22;41790;50.940;4.560;2023-03-01T01:26:19;1.60;65.90
55870;DHT22;41790;50.940;4.560;2023-03-01T01:28:46;1.50;66.10
55870;DHT22;41790;50.940;4.560;2023-03-01T01:31:12;1.40;66.20
55870;DHT22;41790;50.940;4.560;2023-03-01T01:33:38;1.50;66.30
55870;DHT22;41790;50.940;4.560;2023-03-01T01:36:06;1.60;65.50
55870;DHT22;41790;50.940;4.560;2023-03-01T01:38:32;1.60;64.80
55870;DHT22;41790;50.940;4.560;2023-03-01T01:40:58;1.70;64.30
55870;DHT22;41790;50.940;4.560;2023-03-01T01:45:51;1.60;65.30
55870;DHT22;41790;50.940;4.560;2023-03-01T01:48:22;1.60;65.20
55870;DHT22;41790;50.940;4.560;2023-03-01T01:50:57;1.40;66.10
55870;DHT22;41790;50.940;4.560;2023-03-01T01:53:25;1.30;66.10
55870;DHT22;41790;50.940;4.560;2023-03-01T01:55:57;1.50;66.40
55870;DHT22;41790;50.940;4.560;2023-03-01T01:58:25;1.40;67.10
55870;DHT22;41790;50.940;4.560;2023-03-01T02:00:53;1.30;67.50
55870;DHT22;41790;50.940;4.560;2023-03-01T02:03:23;1.30;67.60
55870;DHT22;41790;50.940;4.560;2023-03-01T02:05:51;1.40;66.60
55870;DHT22;41790;50.940;4.560;2023-03-01T02:08:21;1.50;65.40
55870;DHT22;41790;50.940;4.560;2023-03-01T02:10:49;1.60;64.70
55870;DHT22;41790;50.940;4.560;2023-03-01T02:13:16;1.60;64.90
55870;DHT22;41790;50.940;4.560;2023-03-01T02:15:49;1.50;65.80
55870;DHT22;41790;50.940;4.560;2023-03-01T02:18:21;1.50;65.70
55870;DHT22;41790;50.940;4.560;2023-03-01T02:23:18;1.30;66.20
55870;DHT22;41790;50.940;4.560;2023-03-01T02:26:06;1.30;66.40
55870;DHT22;41790;50.940;4.560;2023-03-01T02:28:43;1.20;67.20
55870;DHT22;41790;50.940;4.560;2023-03-01T02:31:11;1.20;67.30
55870;DHT22;41790;50.940;4.560;2023-03-01T02:33:58;1.10;67.50
55870;DHT22;41790;50.940;4.560;2023-03-01T02:36:35;0.90;68.60
55870;DHT22;41790;50.940;4.560;2023-03-01T02:39:05;0.90;68.80
55870;DHT22;41790;50.940;4.560;2023-03-01T02:41:35;1.10;68.00
55870;DHT22;41790;50.940;4.560;2023-03-01T02:44:04;0.90;68.40
55870;DHT22;41790;50.940;4.560;2023-03-01T02:46:43;0.90;69.00
55870;DHT22;41790;50.940;4.560;2023-03-01T02:49:25;0.90;69.40
55870;DHT22;41790;50.940;4.560;2023-03-01T02:54:50;1.00;68.70
55870;DHT22;41790;50.940;4.560;2023-03-01T02:57:22;0.80;69.20
55870;DHT22;41790;50.940;4.560;2023-03-01T02:59:50;0.60;69.90
55870;DHT22;41790;50.940;4.560;2023-03-01T03:02:29;0.70;69.80
55870;DHT22;41790;50.940;4.560;2023-03-01T03:07:35;1.00;69.10
55870;DHT22;41790;50.940;4.560;2023-03-01T03:10:03;1.00;67.90
55870;DHT22;41790;50.940;4.560;2023-03-01T03:12:29;0.90;68.90
55870;DHT22;41790;50.940;4.560;2023-03-01T03:15:00;0.80;69.70
55870;DHT22;41790;50.940;4.560;2023-03-01T03:17:26;0.80;69.70
55870;DHT22;41790;50.940;4.560;2023-03-01T03:20:04;0.80;68.90
55870;DHT22;41790;50.940;4.560;2023-03-01T03:22:32;1.00;68.20
55870;DHT22;41790;50.940;4.560;2023-03-01T03:25:01;1.20;67.40
55870;DHT22;41790;50.940;4.560;2023-03-01T03:27:37;1.10;67.70
55870;DHT22;41790;50.940;4.560;2023-03-01T03:30:05;1.00;67.90
55870;DHT22;41790;50.940;4.560;2023-03-01T03:32:38;0.90;68.20
55870;DHT22;41790;50.940;4.560;2023-03-01T03:35:05;0.90;68.40
55870;DHT22;41790;50.940;4.560;2023-03-01T03:37:41;0.80;68.30
55870;DHT22;41790;50.940;4.560;2023-03-01T03:40:26;0.90;67.40
55870;DHT22;41790;50.940;4.560;2023-03-01T03:42:52;0.80;67.70
55870;DHT22;41790;50.940;4.560;2023-03-01T03:45:22;0.80;68.10
55870;DHT22;41790;50.940;4.560;2023-03-01T03:47:50;0.60;68.30
55870;DHT22;41790;50.940;4.560;2023-03-01T03:50:21;0.50;69.20
55870;DHT22;41790;50.940;4.560;2023-03-01T03:52:47;0.50;69.60
55870;DHT22;41790;50.940;4.560;2023-03-01T03:55:16;0.70;68.90
55870;DHT22;41790;50.940;4.560;2023-03-01T03:57:45;0.80;67.70
55870;DHT22;41790;50.940;4.560;2023-03-01T04:00:22;0.70;67.90
55870;DHT22;41790;50.940;4.560;2023-03-01T04:02:50;0.80;67.80
55870;DHT22;41790;50.940;4.560;2023-03-01T04:05:17;0.80;67.50
55870;DHT22;41790;50.940;4.560;2023-03-01T04:07:44;0.80;67.10
55870;DHT22;41790;50.940;4.560;2023-03-01T04:10:17;0.80;67.00
55870;DHT22;41790;50.940;4.560;2023-03-01T04:12:43;0.70;67.20
55870;DHT22;41790;50.940;4.560;2023-03-01T04:15:12;0.80;66.00
55870;DHT22;41790;50.940;4.560;2023-03-01T04:17:45;0.90;66.20
55870;DHT22;41790;50.940;4.560;2023-03-01T04:20:13;0.80;66.00
55870;DHT22;41790;50.940;4.560;2023-03-01T04:22:43;1.00;66.00
55870;DHT22;41790;50.940;4.560;2023-03-01T04:25:16;0.90;66.40
55870;DHT22;41790;50.940;4.560;2023-03-01T04:27:42;0.80;67.30
55870;DHT22;41790;50.940;4.560;2023-03-01T04:30:10;0.70;67.90
55870;DHT22;41790;50.940;4.560;2023-03-01T04:32:36;0.60;68.50
55870;DHT22;41790;50.940;4.560;2023-03-01T04:35:05;0.60;68.70
55870;DHT22;41790;50.940;4.560;2023-03-01T04:37:31;0.50;68.80
55870;DHT22;41790;50.940;4.560;2023-03-01T04:40:07;0.50;69.00
55870;DHT22;41790;50.940;4.560;2023-03-01T04:42:42;0.60;68.70
55870;DHT22;41790;50.940;4.560;2023-03-01T04:45:08;0.60;67.90
55870;DHT22;41790;50.940;4.560;2023-03-01T04:47:41;0.50;69.00
55870;DHT22;41790;50.940;4.560;2023-03-01T04:50:15;0.40;68.30
55870;DHT22;41790;50.940;4.560;2023-03-01T04:52:42;0.50;68.00
55870;DHT22;41790;50.940;4.560;2023-03-01T04:55:09;0.60;67.10
55870;DHT22;41790;50.940;4.560;2023-03-01T04:57:35;0.60;66.80
55870;DHT22;41790;50.940;4.560;2023-03-01T05:00:02;0.70;66.70
55870;DHT22;41790;50.940;4.560;2023-03-01T05:02:46;0.50;66.90
55870;DHT22;41790;50.940;4.560;2023-03-01T05:05:12;0.50;67.00
55870;DHT22;41790;50.940;4.560;2023-03-01T05:07:41;0.60;66.90
55870;DHT22;41790;50.940;4.560;2023-03-01T05:10:07;0.70;67.10
55870;DHT22;41790;50.940;4.560;2023-03-01T05:12:35;0.40;67.40
55870;DHT22;41790;50.940;4.560;2023-03-01T05:15:05;0.40;68.20
55870;DHT22;41790;50.940;4.560;2023-03-01T05:17:33;0.30;68.30
55870;DHT22;41790;50.940;4.560;2023-03-01T05:20:01;0.20;68.50
55870;DHT22;41790;50.940;4.560;2023-03-01T05:22:32;0.20;69.20
55870;DHT22;41790;50.940;4.560;2023-03-01T05:25:02;0.00;69.30
55870;DHT22;41790;50.940;4.560;2023-03-01T05:27:28;0.00;69.90
55870;DHT22;41790;50.940;4.560;2023-03-01T05:29:55;0.10;69.20
55870;DHT22;41790;50.940;4.560;2023-03-01T05:32:23;0.10;68.60
55870;DHT22;41790;50.940;4.560;2023-03-01T05:34:49;0.20;69.20
55870;DHT22;41790;50.940;4.560;2023-03-01T05:37:20;0.20;68.40
55870;DHT22;41790;50.940;4.560;2023-03-01T05:39:46;0.30;67.30
55870;DHT22;41790;50.940;4.560;2023-03-01T05:42:14;0.30;67.80
55870;DHT22;41790;50.940;4.560;2023-03-01T05:44:40;0.20;67.50
55870;DHT22;41790;50.940;4.560;2023-03-01T05:47:09;0.30;67.50
55870;DHT22;41790;50.940;4.560;2023-03-01T05:49:35;0.30;67.40
55870;DHT22;41790;50.940;4.560;2023-03-01T05:52:00;0.30;67.40
55870;DHT22;41790;50.940;4.560;2023-03-01T05:54:26;0.30;67.10
55870;DHT22;41790;50.940;4.560;2023-03-01T05:56:55;0.40;66.40
55870;DHT22;41790;50.940;4.560;2023-03-01T05:59:24;0.40;66.30
55870;DHT22;41790;50.940;4.560;2023-03-01T06:01:50;0.30;66.70
55870;DHT22;41790;50.940;4.560;2023-03-01T06:04:25;0.20;67.40
55870;DHT22;41790;50.940;4.560;2023-03-01T06:07:01;0.20;67.40
55870;DHT22;41790;50.940;4.560;2023-03-01T06:09:29;0.10;67.70
55870;DHT22;41790;50.940;4.560;2023-03-01T06:11:55;0.20;67.70
55870;DHT22;41790;50.940;4.560;2023-03-01T06:14:21;0.10;67.70
55870;DHT22;41790;50.940;4.560;2023-03-01T06:16:47;0.10;67.70
55870;DHT22;41790;50.940;4.560;2023-03-01T06:19:13;0.20;67.90
55870;DHT22;41790;50.940;4.560;2023-03-01T06:21:38;0.10;67.40
55870;DHT22;41790;50.940;4.560;2023-03-01T06:24:05;0.20;67.50
55870;DHT22;41790;50.940;4.560;2023-03-01T06:26:32;0.20;68.20
55870;DHT22;41790;50.940;4.560;2023-03-01T06:28:58;0.10;68.90
55870;DHT22;41790;50.940;4.560;2023-03-01T06:31:24;0.00;69.30
55870;DHT22;41790;50.940;4.560;2023-03-01T06:33:50;0.10;68.90
55870;DHT22;41790;50.940;4.560;2023-03-01T06:36:16;0.00;69.00
55870;DHT22;41790;50.940;4.560;2023-03-01T06:38:44;0.10;67.70
55870;DHT22;41790;50.940;4.560;2023-03-01T06:41:10;0.20;67.20
55870;DHT22;41790;50.940;4.560;2023-03-01T06:43:36;0.30;66.80
55870;DHT22;41790;50.940;4.560;2023-03-01T06:46:05;0.40;66.70
55870;DHT22;41790;50.940;4.560;2023-03-01T06:48:32;0.30;66.60
55870;DHT22;41790;50.940;4.560;2023-03-01T06:50:59;0.50;66.50
55870;DHT22;41790;50.940;4.560;2023-03-01T06:53:27;0.50;66.40
55870;DHT22;41790;50.940;4.560;2023-03-01T06:55:57;0.60;66.90
55870;DHT22;41790;50.940;4.560;2023-03-01T06:58:30;0.60;66.40
55870;DHT22;41790;50.940;4.560;2023-03-01T07:00:56;0.50;67.10
55870;DHT22;41790;50.940;4.560;2023-03-01T07:03:22;0.60;66.50
55870;DHT22;41790;50.940;4.560;2023-03-01T07:05:49;0.70;66.90
55870;DHT22;41790;50.940;4.560;2023-03-01T07:08:18;0.80;66.90
55870;DHT22;41790;50.940;4.560;2023-03-01T07:10:46;0.80;66.30
55870;DHT22;41790;50.940;4.560;2023-03-01T07:13:12;0.90;66.20
55870;DHT22;41790;50.940;4.560;2023-03-01T07:15:40;0.80;66.70
55870;DHT22;41790;50.940;4.560;2023-03-01T07:18:06;0.80;67.00
55870;DHT22;41790;50.940;4.560;2023-03-01T07:20:32;0.80;67.70
55870;DHT22;41790;50.940;4.560;2023-03-01T07:22:58;0.80;67.50
55870;DHT22;41790;50.940;4.560;2023-03-01T07:25:24;0.80;67.70
55870;DHT22;41790;50.940;4.560;2023-03-01T07:27:56;0.80;67.50
55870;DHT22;41790;50.940;4.560;2023-03-01T07:30:22;1.00;67.50
55870;DHT22;41790;50.940;4.560;2023-03-01T07:32:51;1.00;67.60
55870;DHT22;41790;50.940;4.560;2023-03-01T07:35:26;0.90;68.10
55870;DHT22;41790;50.940;4.560;2023-03-01T07:37:52;0.80;69.80
55870;DHT22;41790;50.940;4.560;2023-03-01T07:40:18;0.60;70.70
55870;DHT22;41790;50.940;4.560;2023-03-01T07:42:44;0.50;71.10
55870;DHT22;41790;50.940;4.560;2023-03-01T07:45:11;0.50;71.80
55870;DHT22;41790;50.940;4.560;2023-03-01T07:47:39;0.50;72.10
55870;DHT22;41790;50.940;4.560;2023-03-01T07:50:05;0.50;71.90
55870;DHT22;41790;50.940;4.560;2023-03-01T07:52:31;0.50;72.10
55870;DHT22;41790;50.940;4.560;2023-03-01T07:54:57;0.50;72.00
55870;DHT22;41790;50.940;4.560;2023-03-01T07:57:23;0.50;72.00
55870;DHT22;41790;50.940;4.560;2023-03-01T07:59:49;0.60;72.10
55870;DHT22;41790;50.940;4.560;2023-03-01T08:02:18;0.60;71.90
55870;DHT22;41790;50.940;4.560;2023-03-01T08:04:51;0.70;71.50
55870;DHT22;41790;50.940;4.560;2023-03-01T08:07:17;0.60;72.00
55870;DHT22;41790;50.940;4.560;2023-03-01T08:09:43;0.50;72.50
55870;DHT22;41790;50.940;4.560;2023-03-01T08:12:09;0.60;72.50
55870;DHT22;41790;50.940;4.560;2023-03-01T08:14:35;0.70;72.20
55870;DHT22;41790;50.940;4.560;2023-03-01T08:17:01;0.60;72.30
55870;DHT22;41790;50.940;4.560;2023-03-01T08:19:28;0.70;72.70
55870;DHT22;41790;50.940;4.560;2023-03-01T08:21:54;0.80;73.10
55870;DHT22;41790;50.940;4.560;2023-03-01T08:24:23;0.80;72.00
55870;DHT22;41790;50.940;4.560;2023-03-01T08:26:49;0.70;72.80
55870;DHT22;41790;50.940;4.560;2023-03-01T08:29:15;0.80;73.00
55870;DHT22;41790;50.940;4.560;2023-03-01T08:31:41;1.00;71.80
55870;DHT22;41790;50.940;4.560;2023-03-01T08:34:11;1.10;71.60
55870;DHT22;41790;50.940;4.560;2023-03-01T08:36:43;1.30;70.60
55870;DHT22;41790;50.940;4.560;2023-03-01T08:39:11;1.30;69.70
55870;DHT22;41790;50.940;4.560;2023-03-01T08:41:37;1.30;70.30
55870;DHT22;41790;50.940;4.560;2023-03-01T08:44:04;1.40;70.80
55870;DHT22;41790;50.940;4.560;2023-03-01T08:46:34;1.40;70.60
55870;DHT22;41790;50.940;4.560;2023-03-01T08:49:14;1.40;69.70
55870;DHT22;41790;50.940;4.560;2023-03-01T08:51:40;1.40;70.10
55870;DHT22;41790;50.940;4.560;2023-03-01T08:54:11;1.40;70.60
55870;DHT22;41790;50.940;4.560;2023-03-01T08:56:37;1.60;70.90
55870;DHT22;41790;50.940;4.560;2023-03-01T08:59:03;1.60;69.90
55870;DHT22;41790;50.940;4.560;2023-03-01T09:01:29;1.60;69.50
55870;DHT22;41790;50.940;4.560;2023-03-01T09:03:55;1.70;69.50
55870;DHT22;41790;50.940;4.560;2023-03-01T09:06:21;1.80;69.50
55870;DHT22;41790;50.940;4.560;2023-03-01T09:08:49;2.10;69.60
55870;DHT22;41790;50.940;4.560;2023-03-01T09:11:18;2.20;68.50
55870;DHT22;41790;50.940;4.560;2023-03-01T09:13:46;2.40;66.90
55870;DHT22;41790;50.940;4.560;2023-03-01T09:16:14;2.50;66.90
55870;DHT22;41790;50.940;4.560;2023-03-01T09:18:41;2.70;66.20
55870;DHT22;41790;50.940;4.560;2023-03-01T09:21:12;2.70;65.50
55870;DHT22;41790;50.940;4.560;2023-03-01T09:23:40;2.60;65.90
55870;DHT22;41790;50.940;4.560;2023-03-01T09:26:08;2.50;65.00
55870;DHT22;41790;50.940;4.560;2023-03-01T09:28:38;2.50;64.30
55870;DHT22;41790;50.940;4.560;2023-03-01T09:31:04;2.50;64.00
55870;DHT22;41790;50.940;4.560;2023-03-01T09:33:32;2.50;64.60
55870;DHT22;41790;50.940;4.560;2023-03-01T09:36:04;2.60;64.70
55870;DHT22;41790;50.940;4.560;2023-03-01T09:38:31;2.70;63.50
55870;DHT22;41790;50.940;4.560;2023-03-01T09:40:57;2.80;63.30
55870;DHT22;41790;50.940;4.560;2023-03-01T09:43:29;2.80;63.50
55870;DHT22;41790;50.940;4.560;2023-03-01T09:46:00;2.80;62.20
55870;DHT22;41790;50.940;4.560;2023-03-01T09:48:36;2.80;62.40
55870;DHT22;41790;50.940;4.560;2023-03-01T09:51:08;2.90;62.60
55870;DHT22;41790;50.940;4.560;2023-03-01T09:53:34;2.90;62.20
55870;DHT22;41790;50.940;4.560;2023-03-01T09:56:05;2.90;62.10
55870;DHT22;41790;50.940;4.560;2023-03-01T09:58:53;3.10;62.20
55870;DHT22;41790;50.940;4.560;2023-03-01T10:09:30;3.30;60.60
55870;DHT22;41790;50.940;4.560;2023-03-01T10:11:58;3.40;60.90
55870;DHT22;41790;50.940;4.560;2023-03-01T10:19:50;3.50;59.10
55870;DHT22;41790;50.940;4.560;2023-03-01T10:22:26;3.50;59.10
55870;DHT22;41790;50.940;4.560;2023-03-01T10:24:56;3.70;58.80
55870;DHT22;41790;50.940;4.560;2023-03-01T10:32:37;3.80;57.50
55870;DHT22;41790;50.940;4.560;2023-03-01T10:35:25;3.90;57.60
55870;DHT22;41790;50.940;4.560;2023-03-01T10:38:11;3.90;57.00
55870;DHT22;41790;50.940;4.560;2023-03-01T10:41:05;3.90;56.70
55870;DHT22;41790;50.940;4.560;2023-03-01T10:43:54;3.90;56.20
55870;DHT22;41790;50.940;4.560;2023-03-01T10:46:27;3.90;56.60
55870;DHT22;41790;50.940;4.560;2023-03-01T10:49:19;4.00;57.30
55870;DHT22;41790;50.940;4.560;2023-03-01T10:51:47;4.20;57.20
55870;DHT22;41790;50.940;4.560;2023-03-01T10:54:28;4.30;56.40
55870;DHT22;41790;50.940;4.560;2023-03-01T10:56:56;4.30;55.70
55870;DHT22;41790;50.940;4.560;2023-03-01T10:59:29;4.30;56.20
55870;DHT22;41790;50.940;4.560;2023-03-01T11:02:15;4.40;55.80
55870;DHT22;41790;50.940;4.560;2023-03-01T11:07:50;4.60;56.30
55870;DHT22;41790;50.940;4.560;2023-03-01T11:10:19;4.50;54.80
55870;DHT22;41790;50.940;4.560;2023-03-01T11:12:45;4.50;54.50
55870;DHT22;41790;50.940;4.560;2023-03-01T11:15:26;4.60;54.90
55870;DHT22;41790;50.940;4.560;2023-03-01T11:17:53;4.70;55.00
55870;DHT22;41790;50.940;4.560;2023-03-01T11:20:35;4.60;55.00
55870;DHT22;41790;50.940;4.560;2023-03-01T11:23:13;4.60;54.60
55870;DHT22;41790;50.940;4.560;2023-03-01T11:28:23;4.80;54.10
55870;DHT22;41790;50.940;4.560;2023-03-01T11:31:03;4.80;53.50
55870;DHT22;41790;50.940;4.560;2023-03-01T11:33:44;4.80;53.40
55870;DHT22;41790;50.940;4.560;2023-03-01T11:36:35;4.80;53.60
55870;DHT22;41790;50.940;4.560;2023-03-01T11:42:00;5.00;53.80
55870;DHT22;41790;50.940;4.560;2023-03-01T11:44:31;5.10;53.80
55870;DHT22;41790;50.940;4.560;2023-03-01T11:47:20;5.00;52.70
55870;DHT22;41790;50.940;4.560;2023-03-01T11:52:59;5.10;52.10
55870;DHT22;41790;50.940;4.560;2023-03-01T11:55:41;5.10;52.10
55870;DHT22;41790;50.940;4.560;2023-03-01T11:58:38;5.30;54.00
55870;DHT22;41790;50.940;4.560;2023-03-01T12:01:21;5.30;52.60
55870;DHT22;41790;50.940;4.560;2023-03-01T12:12:36;5.30;52.20
55870;DHT22;41790;50.940;4.560;2023-03-01T12:18:33;5.40;54.20
55870;DHT22;41790;50.940;4.560;2023-03-01T12:21:28;5.50;53.20
55870;DHT22;41790;50.940;4.560;2023-03-01T12:24:11;5.70;53.00
55870;DHT22;41790;50.940;4.560;2023-03-01T12:27:02;5.70;51.90
55870;DHT22;41790;50.940;4.560;2023-03-01T12:29:47;5.70;51.70
55870;DHT22;41790;50.940;4.560;2023-03-01T12:37:47;5.80;49.50
55870;DHT22;41790;50.940;4.560;2023-03-01T12:40:29;5.80;50.10
55870;DHT22;41790;50.940;4.560;2023-03-01T12:43:10;5.70;50.50
55870;DHT22;41790;50.940;4.560;2023-03-01T12:46:04;5.80;50.70
55870;DHT22;41790;50.940;4.560;2023-03-01T12:51:36;5.70;50.80
55870;DHT22;41790;50.940;4.560;2023-03-01T12:54:24;5.80;49.80
55870;DHT22;41790;50.940;4.560;2023-03-01T12:56:52;5.90;49.30
55870;DHT22;41790;50.940;4.560;2023-03-01T13:04:28;6.00;50.60
55870;DHT22;41790;50.940;4.560;2023-03-01T13:10:14;6.20;50.10
55870;DHT22;41790;50.940;4.560;2023-03-01T13:12:51;6.30;49.80
55870;DHT22;41790;50.940;4.560;2023-03-01T13:18:00;6.20;50.00
55870;DHT22;41790;50.940;4.560;2023-03-01T13:20:46;6.20;50.00
55870;DHT22;41790;50.940;4.560;2023-03-01T13:26:07;6.10;50.40
55870;DHT22;41790;50.940;4.560;2023-03-01T13:33:52;6.50;50.50
55870;DHT22;41790;50.940;4.560;2023-03-01T13:49:47;6.50;50.20
55870;DHT22;41790;50.940;4.560;2023-03-01T13:52:30;6.50;50.20
55870;DHT22;41790;50.940;4.560;2023-03-01T13:54:58;6.50;49.80
55870;DHT22;41790;50.940;4.560;2023-03-01T13:57:33;6.50;49.80
55870;DHT22;41790;50.940;4.560;2023-03-01T14:00:00;6.50;48.90
55870;DHT22;41790;50.940;4.560;2023-03-01T14:02:25;6.50;48.00
55870;DHT22;41790;50.940;4.560;2023-03-01T14:04:59;6.50;49.50
55870;DHT22;41790;50.940;4.560;2023-03-01T14:07:26;6.50;49.20
55870;DHT22;41790;50.940;4.560;2023-03-01T14:10:01;6.60;48.80
55870;DHT22;41790;50.940;4.560;2023-03-01T14:12:51;6.50;49.00
55870;DHT22;41790;50.940;4.560;2023-03-01T14:15:22;6.50;48.20
55870;DHT22;41790;50.940;4.560;2023-03-01T14:20:22;6.50;48.10
55870;DHT22;41790;50.940;4.560;2023-03-01T14:22:51;6.50;47.90
55870;DHT22;41790;50.940;4.560;2023-03-01T14:25:30;6.60;48.20
55870;DHT22;41790;50.940;4.560;2023-03-01T14:28:15;6.50;48.00
55870;DHT22;41790;50.940;4.560;2023-03-01T14:33:21;6.50;48.40
55870;DHT22;41790;50.940;4.560;2023-03-01T14:35:54;6.50;48.10
55870;DHT22;41790;50.940;4.560;2023-03-01T14:38:22;6.50;48.20
55870;DHT22;41790;50.940;4.560;2023-03-01T14:40:52;6.60;48.90
55870;DHT22;41790;50.940;4.560;2023-03-01T14:43:22;6.60;47.80
55870;DHT22;41790;50.940;4.560;2023-03-01T14:45:50;6.70;47.30
55870;DHT22;41790;50.940;4.560;2023-03-01T14:48:17;6.70;47.50
55870;DHT22;41790;50.940;4.560;2023-03-01T14:50:44;6.80;48.00
55870;DHT22;41790;50.940;4.560;2023-03-01T14:53:23;6.90;48.20
55870;DHT22;41790;50.940;4.560;2023-03-01T14:55:55;6.90;48.60
55870;DHT22;41790;50.940;4.560;2023-03-01T14:58:25;6.90;48.30
55870;DHT22;41790;50.940;4.560;2023-03-01T15:00:54;6.90;48.50
55870;DHT22;41790;50.940;4.560;2023-03-01T15:03:41;7.00;48.80
55870;DHT22;41790;50.940;4.560;2023-03-01T15:06:10;6.90;47.80
55870;DHT22;41790;50.940;4.560;2023-03-01T15:08:42;7.00;48.40
55870;DHT22;41790;50.940;4.560;2023-03-01T15:11:30;6.90;46.50
55870;DHT22;41790;50.940;4.560;2023-03-01T15:13:57;6.90;47.50
55870;DHT22;41790;50.940;4.560;2023-03-01T15:16:30;6.90;46.80
55870;DHT22;41790;50.940;4.560;2023-03-01T15:19:02;6.90;46.40
55870;DHT22;41790;50.940;4.560;2023-03-01T15:21:32;6.80;46.40
55870;DHT22;41790;50.940;4.560;2023-03-01T15:26:52;6.80;46.30
55870;DHT22;41790;50.940;4.560;2023-03-01T15:29:25;6.80;46.50
55870;DHT22;41790;50.940;4.560;2023-03-01T15:32:00;6.80;46.90
55870;DHT22;41790;50.940;4.560;2023-03-01T15:34:36;6.90;47.50
55870;DHT22;41790;50.940;4.560;2023-03-01T15:37:05;6.90;46.90
55870;DHT22;41790;50.940;4.560;2023-03-01T15:39:40;6.90;46.70
55870;DHT22;41790;50.940;4.560;2023-03-01T15:42:35;6.80;47.10
55870;DHT22;41790;50.940;4.560;2023-03-01T15:47:48;6.80;46.30
55870;DHT22;41790;50.940;4.560;2023-03-01T15:50:27;6.80;46.90
55870;DHT22;41790;50.940;4.560;2023-03-01T15:52:54;6.80;47.00
55870;DHT22;41790;50.940;4.560;2023-03-01T15:55:25;6.80;46.80
55870;DHT22;41790;50.940;4.560;2023-03-01T15:58:27;6.80;47.50
55870;DHT22;41790;50.940;4.560;2023-03-01T16:00:52;6.90;48.40
55870;DHT22;41790;50.940;4.560;2023-03-01T16:03:22;6.80;48.30
55870;DHT22;41790;50.940;4.560;2023-03-01T16:05:49;6.80;47.90
55870;DHT22;41790;50.940;4.560;2023-03-01T16:08:17;6.80;48.00
55870;DHT22;41790;50.940;4.560;2023-03-01T16:10:43;6.70;48.40
55870;DHT22;41790;50.940;4.560;2023-03-01T16:13:11;6.70;47.30
55870;DHT22;41790;50.940;4.560;2023-03-01T16:15:37;6.70;47.60
55870;DHT22;41790;50.940;4.560;2023-03-01T16:18:04;6.70;47.50
55870;DHT22;41790;50.940;4.560;2023-03-01T16:20:35;6.60;47.90
55870;DHT22;41790;50.940;4.560;2023-03-01T16:23:04;6.60;47.70
55870;DHT22;41790;50.940;4.560;2023-03-01T16:25:31;6.60;48.10
55870;DHT22;41790;50.940;4.560;2023-03-01T16:27:58;6.60;47.90
55870;DHT22;41790;50.940;4.560;2023-03-01T16:30:26;6.60;48.40
55870;DHT22;41790;50.940;4.560;2023-03-01T16:32:52;6.60;48.60
55870;DHT22;41790;50.940;4.560;2023-03-01T16:35:20;6.60;48.90
55870;DHT22;41790;50.940;4.560;2023-03-01T16:37:47;6.50;49.00
55870;DHT22;41790;50.940;4.560;2023-03-01T16:40:20;6.50;49.40
55870;DHT22;41790;50.940;4.560;2023-03-01T16:42:50;6.50;49.70
55870;DHT22;41790;50.940;4.560;2023-03-01T16:45:16;6.50;49.80
55870;DHT22;41790;50.940;4.560;2023-03-01T16:47:42;6.50;50.00
55870;DHT22;41790;50.940;4.560;2023-03-01T16:50:09;6.50;50.30
55870;DHT22;41790;50.940;4.560;2023-03-01T16:52:35;6.50;50.70
55870;DHT22;41790;50.940;4.560;2023-03-01T16:55:06;6.50;50.90
55870;DHT22;41790;50.940;4.560;2023-03-01T16:57:36;6.40;51.50
55870;DHT22;41790;50.940;4.560;2023-03-01T17:00:06;6.30;51.30
55870;DHT22;41790;50.940;4.560;2023-03-01T17:02:34;6.20;51.40
55870;DHT22;41790;50.940;4.560;2023-03-01T17:05:01;6.20;51.50
55870;DHT22;41790;50.940;4.560;2023-03-01T17:07:31;6.10;51.20
55870;DHT22;41790;50.940;4.560;2023-03-01T17:09:59;6.10;51.00
55870;DHT22;41790;50.940;4.560;2023-03-01T17:12:25;6.10;51.30
55870;DHT22;41790;50.940;4.560;2023-03-01T17:14:51;6.00;51.30
55870;DHT22;41790;50.940;4.560;2023-03-01T17:17:17;6.00;51.60
55870;DHT22;41790;50.940;4.560;2023-03-01T17:19:43;6.00;51.60
55870;DHT22;41790;50.940;4.560;2023-03-01T17:22:12;5.90;51.50
55870;DHT22;41790;50.940;4.560;2023-03-01T17:24:42;5.90;51.60
55870;DHT22;41790;50.940;4.560;2023-03-01T17:27:08;5.90;51.90
55870;DHT22;41790;50.940;4.560;2023-03-01T17:29:34;5.80;51.80
55870;DHT22;41790;50.940;4.560;2023-03-01T17:32:01;5.80;52.10
55870;DHT22;41790;50.940;4.560;2023-03-01T17:34:27;5.70;52.10
55870;DHT22;41790;50.940;4.560;2023-03-01T17:36:52;5.70;52.10
55870;DHT22;41790;50.940;4.560;2023-03-01T17:39:19;5.70;52.10
55870;DHT22;41790;50.940;4.560;2023-03-01T17:41:50;5.60;52.30
55870;DHT22;41790;50.940;4.560;2023-03-01T17:44:16;5.60;52.30
